Portada
METAR-TAF:

METAR-TAF

Aeropuertos :

Atlantic, Iowa, Estados Unidos

latitud: 41-24N, longitud: 095-03W, altitud: 360 m

Observación

El informe se hizo hace 29 minutos, a las 08:35 UTC
Viento 5 kt del este-noreste
Temperatura 24°C
Humedad 61%
Presión 1015 hPa
Visibilidad: 16.1 km
Cielo nuboso a una altura de 6000 ft
Cielo cubierto a una altura de 8000 ft

METAR: KAIO 060835Z AUTO 07005KT 10SM BKN060 OVC080 24/16 A2998 RMK AO2

Hora: 04:04 (09:04 UTC)


TAF: falta

Observaciones y pronósticos meteorológicos de más de 4000 aeropuertos (mensajes METAR y TAF).

Los puntos amarillos y rojos representan las estaciones disponibles.

Ponga el ratón en el punto deseado para ver el nombre de la estación.

Haga clic para ver las observaciones y los pronósticos meteorológicos.

Para cambiar el mapa : haga clic en los botones verdes con una cruz de color negro para hacer un zoom, en el botón verde con un guión para alejar o en las flechas verdes para mapas adyacentes.


METAR-TAF: